Meath Environmental Platform

Observations for Trim Patrick St

Time AQI Temp °C Hum % Pres Pa CO μg/m³ H₂S μg/m³ NO μg/m³ NO₂ μg/m³ O₃ μg/m³ SO₂ μg/m³ PM1 μg/m³ PM2.5 μg/m³ PM10 μg/m³
Saturday 1 August 2026
11:03 1 25.2 41 68,935 0 0 1.94 1.6 61.21 7.03 2.86 8.55 9.41
11:02 1 25.3 40 68,926 0 0 1.96 0 59.04 7.9 2.86 8.65 9.51
11:01 1 25.4 38 68,908 0 0 1.99 5.84 69.46 6.87 2.86 9.52 10.47
11:00 1 25.6 37 68,920 0 0 1.97 0 2.83 6.16 2.86 9.58 10.54
10:59 1 25.7 40 68,908 0 0 1.8 2.06 33.94 7.72 8 15.66 17.22
10:58 1 25.8 40 68,920 0.01 0 1.76 6.54 34.25 6.57 5.43 11.72 12.89
10:57 1 25.8 41 68,924 0.01 0 1.76 3.28 54.08 7.52 7.14 13.25 14.57
10:56 1 25.8 41 68,935 0 0 1.75 9.32 49.81 7.38 5.43 12.48 13.73
10:55 1 25.8 41 68,943 0 0 1.73 10.1 60.61 6.62 6.29 15.58 17.14
10:54 1 25.7 41 68,934 0 0 1.77 2.86 57.19 7.68 5.43 12.43 13.67
10:53 1 25.6 42 68,920 0 0 1.79 7.84 67.71 7.1 5.43 11.64 12.8
10:52 1 25.5 39 68,898 0 0 1.92 0 15.58 5.52 6.29 13.38 14.71
10:51 1 25.5 41 68,902 0 0 1.84 2.2 51.5 7.22 4.57 11.66 12.83
10:50 1 25.4 41 68,902 0 0 1.87 7.08 63.4 6.42 6.29 12.45 13.69
10:49 1 25.3 38 68,906 0.01 0 2.01 0 13.66 6.67 8 15.02 16.52
10:48 1 25.3 45 68,918 0.03 0 1.81 3.38 50.35 6.47 4.57 11.39 12.53
10:47 1 25.2 43 68,902 0.07 0 1.89 3.41 35.87 5.58 6.29 13.87 15.26
10:46 1 25.2 42 68,908 0.04 0 1.91 2.38 55.56 7.59 6.29 13.15 14.47
10:45 1 25.2 42 68,882 0.06 0 1.9 6.55 47.19 5.74 6.29 13.14 14.46
10:44 1 25.2 44 68,914 0.11 0 1.87 1.38 19.56 5.96 7.14 13.8 15.18